logo dgac
Miércoles 28 de Febrero del 2024
Buscar por aerodromo o helipuerto
Ingrese nombre de aeródromo, localidad o designador OACI:
TAF: TAF SCAT 272238Z 2800/2824 24012KT 9999 FEW025 TN20/2810Z TX23/2818Z BECMG 2804/2806 32004KT OVC014 BECMG 2813/2814 OVC020 BECMG 2815/2817 24014KT FEW025
TAF del 27/02/2024 a las 22:38 UTC
Para mayor información visite www.meteochile.gob.cl
Período de validez: desde el 28 a las 00:00 UTC hasta el 28 a las 24:00 UTC
Viento: dirección 240 grados, velocidad 12 nudos
Visibilidad: 10 km o más
Nubes: Escasa nubosidad a 2500 pies sobre el nivel del aeródromo
Temperatura mínima: 20ºC el 28 a las 10:00 UTC
Temperatura máxima: 23ºC el 28 a las 18:00 UTC
Se espera un cambio entre las 04:00 UTC del 28 y las 06:00 UTC del 28, :
Viento: dirección 320 grados, velocidad 4 nudos
Nubes: Cubierto a 1400 pies sobre el nivel del aeródromo
Se espera un cambio entre las 13:00 UTC del 28 y las 14:00 UTC del 28, :
Nubes: Cubierto a 2000 pies sobre el nivel del aeródromo
Se espera un cambio entre las 15:00 UTC del 28 y las 17:00 UTC del 28, :
Viento: dirección 240 grados, velocidad 14 nudos
Nubes: Escasa nubosidad a 2500 pies sobre el nivel del aeródromo